NSZ0WL LIRF-EKCH
Flight info
| Callsign | NSZ0WL |
|---|---|
| Flight time | N/A |
| Altitude | 36000 |
| Route | SOVAN DCT AMTEL DCT BRENO DCT KONIN DCT EXITI DCT EMBOX/N0465F370 DCT NOBRI/N0465F380 M726 ROSOK Q296 MONAK |
| Aircraft | B738/M-SDE2E3FGHIRWXY/LB1 |
Departure
| Time | 2026-02-17 12:36 |
|---|---|
| Airport | Rome–Fiumicino Leonardo da Vinci International Airport (LIRF) |
Arrival
| Time | N/A |
|---|---|
| Airport | Copenhagen Kastrup Airport (EKCH) |
| Time | Latitude | Longitude | Altitude | Speed | Heading |
|---|---|---|---|---|---|
| 2026-02-17 12:15 | 41.79691 | 12.25989 | 19 ft | 0 kts | 296° |
| 2026-02-17 12:23 | 41.79687 | 12.26001 | 19 ft | 2 kts | 296° |
| 2026-02-17 12:23 | 41.79679 | 12.26019 | 19 ft | 2 kts | 316° |
| 2026-02-17 12:24 | 41.79667 | 12.26030 | 19 ft | 2 kts | 334° |
| 2026-02-17 12:24 | 41.79652 | 12.26036 | 19 ft | 2 kts | 355° |
| 2026-02-17 12:24 | 41.79638 | 12.26035 | 19 ft | 2 kts | 15° |
| 2026-02-17 12:24 | 41.79630 | 12.26031 | 19 ft | 1 kts | 28° |
| 2026-02-17 12:25 | 41.79626 | 12.26028 | 19 ft | 0 kts | 25° |
| 2026-02-17 12:27 | 41.79630 | 12.26031 | 19 ft | 3 kts | 25° |
| 2026-02-17 12:27 | 41.79682 | 12.26064 | 19 ft | 11 kts | 24° |
| 2026-02-17 12:27 | 41.79750 | 12.26086 | 19 ft | 9 kts | 330° |
| 2026-02-17 12:28 | 41.79790 | 12.25995 | 19 ft | 13 kts | 295° |
| 2026-02-17 12:28 | 41.79836 | 12.25864 | 19 ft | 13 kts | 295° |
| 2026-02-17 12:28 | 41.79868 | 12.25825 | 18 ft | 6 kts | 6° |
| 2026-02-17 12:28 | 41.79935 | 12.25863 | 17 ft | 14 kts | 24° |
| 2026-02-17 12:29 | 41.80054 | 12.25934 | 16 ft | 20 kts | 21° |
| 2026-02-17 12:29 | 41.80174 | 12.26011 | 16 ft | 19 kts | 25° |
| 2026-02-17 12:29 | 41.80293 | 12.26082 | 16 ft | 16 kts | 25° |
| 2026-02-17 12:29 | 41.80398 | 12.26148 | 16 ft | 17 kts | 23° |
| 2026-02-17 12:30 | 41.80505 | 12.26205 | 15 ft | 15 kts | 39° |
| 2026-02-17 12:30 | 41.80557 | 12.26347 | 13 ft | 18 kts | 69° |
| 2026-02-17 12:30 | 41.80601 | 12.26510 | 13 ft | 18 kts | 69° |
| 2026-02-17 12:31 | 41.80692 | 12.26839 | 9 ft | 19 kts | 70° |
| 2026-02-17 12:31 | 41.80735 | 12.26996 | 9 ft | 16 kts | 70° |
| 2026-02-17 12:31 | 41.80775 | 12.27121 | 9 ft | 11 kts | 45° |
| 2026-02-17 12:31 | 41.80841 | 12.27127 | 10 ft | 9 kts | 340° |
| 2026-02-17 12:32 | 41.80888 | 12.27104 | 10 ft | 3 kts | 340° |
| 2026-02-17 12:32 | 41.80903 | 12.27097 | 11 ft | 1 kts | 339° |
| 2026-02-17 12:32 | 41.80903 | 12.27096 | 11 ft | 0 kts | 339° |
| 2026-02-17 12:34 | 41.80909 | 12.27093 | 11 ft | 3 kts | 339° |
| 2026-02-17 12:35 | 41.80978 | 12.27008 | 12 ft | 5 kts | 250° |
| 2026-02-17 12:35 | 41.80962 | 12.26950 | 11 ft | 6 kts | 251° |
| 2026-02-17 12:35 | 41.80960 | 12.26943 | 11 ft | 0 kts | 251° |
| 2026-02-17 12:35 | 41.80927 | 12.26815 | 9 ft | 47 kts | 251° |
| 2026-02-17 12:36 | 41.80717 | 12.26057 | 16 ft | 121 kts | 250° |
| 2026-02-17 12:36 | 41.80342 | 12.24769 | 128 ft | 167 kts | 243° |
| 2026-02-17 12:36 | 41.79851 | 12.23367 | 837 ft | 169 kts | 250° |
| 2026-02-17 12:36 | 41.79403 | 12.21922 | 1507 ft | 171 kts | 261° |
| 2026-02-17 12:37 | 41.79172 | 12.20407 | 2176 ft | 170 kts | 269° |
| 2026-02-17 12:37 | 41.79239 | 12.18838 | 2592 ft | 182 kts | 292° |
| 2026-02-17 12:37 | 41.79983 | 12.17282 | 2317 ft | 213 kts | 314° |
| 2026-02-17 12:37 | 41.81072 | 12.15813 | 2367 ft | 229 kts | 314° |
| 2026-02-17 12:38 | 41.82108 | 12.14204 | 2818 ft | 230 kts | 309° |
| 2026-02-17 12:38 | 41.83061 | 12.12521 | 3410 ft | 223 kts | 309° |
| 2026-02-17 12:38 | 41.83997 | 12.10931 | 3939 ft | 219 kts | 316° |
| 2026-02-17 12:39 | 41.86848 | 12.09257 | 4670 ft | 253 kts | 348° |
| 2026-02-17 12:39 | 41.88619 | 12.08762 | 5318 ft | 265 kts | 346° |
| 2026-02-17 12:39 | 41.90344 | 12.08172 | 6483 ft | 256 kts | 344° |
| 2026-02-17 12:39 | 41.92001 | 12.07527 | 7514 ft | 251 kts | 343° |
| 2026-02-17 12:40 | 41.93622 | 12.06880 | 8279 ft | 255 kts | 343° |
| 2026-02-17 12:40 | 41.95222 | 12.06254 | 9140 ft | 255 kts | 344° |
| 2026-02-17 12:40 | 41.96910 | 12.05837 | 9913 ft | 258 kts | 353° |
| 2026-02-17 12:40 | 41.98689 | 12.05718 | 10620 ft | 264 kts | 356° |